Time;durP1;ratioP1;P1;durP2;ratioP2;P2;SDS_P1;SDS_P2;PMS_P1;PMS_P2;Temp;Humidity;BMP_temperature;BMP_pressure;BME280_temperature;BME280_humidity;BME280_pressure;Samples;Min_cycle;Max_cycle;Signal;HPM_P1;HPM_P2
2022/07/30 00:00:16;;;;;;;20.93;14.23;;;;;;;21.37;76.72;100662.28;125235;1100;103052;-78
2022/07/30 00:03:05;;;;;;;20.90;13.10;;;;;;;21.36;76.23;100665.84;125082;1102;104168;-78
2022/07/30 00:05:33;;;;;;;21.60;14.13;;;;;;;21.34;76.75;100667.64;124485;1099;102506;-78
2022/07/30 00:08:02;;;;;;;22.20;14.10;;;;;;;21.35;76.47;100667.63;124444;1099;104195;-78
2022/07/30 00:10:31;;;;;;;21.05;14.20;;;;;;;21.34;76.48;100667.64;124360;1102;104399;-79
2022/07/30 00:13:00;;;;;;;20.50;14.30;;;;;;;21.33;76.58;100669.44;124386;1102;104178;-79
2022/07/30 00:15:29;;;;;;;21.83;13.97;;;;;;;21.34;77.20;100676.52;124448;1102;104064;-78
2022/07/30 00:17:58;;;;;;;21.87;14.10;;;;;;;21.35;76.37;100667.63;124570;1102;104255;-78
2022/07/30 00:20:27;;;;;;;25.13;15.07;;;;;;;21.36;77.19;100666.75;124495;1099;104163;-77
2022/07/30 00:22:56;;;;;;;22.57;14.70;;;;;;;21.36;77.24;100669.42;124400;1097;102752;-78
2022/07/30 00:25:24;;;;;;;22.37;15.27;;;;;;;21.36;77.30;100664.08;125138;1099;104201;-78
2022/07/30 00:27:54;;;;;;;23.87;15.23;;;;;;;21.38;76.81;100669.41;124455;1102;102968;-78
2022/07/30 00:30:23;;;;;;;23.53;15.37;;;;;;;21.37;77.82;100673.84;124445;1100;104257;-78
2022/07/30 00:32:52;;;;;;;24.10;16.03;;;;;;;21.37;76.67;100667.63;124487;1099;104156;-78
2022/07/30 00:35:20;;;;;;;23.60;15.90;;;;;;;21.38;76.94;100664.07;125160;1102;104602;-78
2022/07/30 00:37:49;;;;;;;25.67;16.60;;;;;;;21.36;77.00;100665.84;124459;1099;104179;-78
2022/07/30 00:40:18;;;;;;;24.13;16.10;;;;;;;21.35;77.85;100659.62;125167;1099;104399;-78
2022/07/30 00:42:47;;;;;;;27.77;16.60;;;;;;;21.37;77.72;100662.28;124488;1099;104178;-79
2022/07/30 00:45:17;;;;;;;22.93;15.90;;;;;;;21.40;77.94;100656.05;125172;1100;104280;-78
2022/07/30 00:47:46;;;;;;;22.93;15.07;;;;;;;21.38;77.41;100650.73;125118;1099;102162;-78
2022/07/30 00:50:15;;;;;;;23.37;15.73;;;;;;;21.37;77.38;100648.94;124418;1099;104319;-78
2022/07/30 00:52:45;;;;;;;25.20;17.17;;;;;;;21.38;78.17;100648.05;125155;1102;104158;-78
2022/07/30 00:55:15;;;;;;;26.60;16.80;;;;;;;21.39;77.64;100643.59;124477;1099;102807;-78
2022/07/30 00:57:44;;;;;;;24.17;15.57;;;;;;;21.39;77.54;100636.45;125074;1102;101779;-79
2022/07/30 01:00:15;;;;;;;23.57;16.23;;;;;;;21.39;77.85;100639.12;125167;1099;104211;-78
2022/07/30 01:02:44;;;;;;;24.30;15.70;;;;;;;21.40;77.58;100635.58;125071;1102;103261;-79
2022/07/30 01:05:14;;;;;;;23.13;15.27;;;;;;;21.40;77.21;100626.69;124434;1099;104169;-79
2022/07/30 01:07:43;;;;;;;23.83;15.13;;;;;;;21.39;78.02;100630.25;125117;1099;102110;-78
2022/07/30 01:10:13;;;;;;;20.87;13.27;;;;;;;21.40;78.43;100629.36;125135;1099;104207;-78
2022/07/30 01:12:43;;;;;;;20.53;13.13;;;;;;;21.41;78.43;100621.34;125119;1102;104168;-78
2022/07/30 01:15:13;;;;;;;20.87;12.53;;;;;;;21.41;77.47;100620.44;125132;1099;102328;-78
2022/07/30 01:17:41;;;;;;;22.07;11.53;;;;;;;21.37;77.78;100617.78;124357;1102;102781;-78
2022/07/30 01:20:15;;;;;;;18.77;11.90;;;;;;;21.37;77.90;100614.24;125095;1102;104229;-79
2022/07/30 01:22:47;;;;;;;;;;;;;;;21.33;77.39;100615.15;125144;1099;104284;-77
2022/07/30 01:25:24;;;;;;;20.67;12.23;;;;;;;21.29;78.23;100613.42;125091;1099;104205;-78
2022/07/30 01:27:57;;;;;;;20.53;12.03;;;;;;;21.28;78.14;100611.63;124296;1102;104308;-78
2022/07/30 01:30:30;;;;;;;20.23;12.03;;;;;;;21.28;77.76;100614.30;124323;1099;102774;-78
2022/07/30 01:33:00;;;;;;;19.92;12.13;;;;;;;21.24;78.31;100620.55;125063;1099;104175;-78
2022/07/30 01:35:32;;;;;;;18.77;11.70;;;;;;;21.19;78.63;100616.14;124379;1102;110674;-78
2022/07/30 01:38:03;;;;;;;18.33;11.47;;;;;;;21.16;77.74;100615.25;124327;1102;104210;-78
2022/07/30 01:40:34;;;;;;;18.00;10.73;;;;;;;21.16;78.38;100620.59;125047;1102;102893;-78
2022/07/30 01:43:05;;;;;;;19.13;11.37;;;;;;;21.17;77.59;100622.38;124233;1102;104162;-77
2022/07/30 01:45:35;;;;;;;16.73;10.23;;;;;;;21.16;77.64;100618.83;124276;1099;102844;-78
2022/07/30 01:48:08;;;;;;;15.70;9.80;;;;;;;21.16;77.63;100626.84;124412;1099;104239;-77
2022/07/30 01:50:39;;;;;;;17.63;11.23;;;;;;;21.17;78.24;100627.71;124404;1102;104413;-78
2022/07/30 01:53:16;;;;;;;17.30;9.90;;;;;;;21.16;77.56;100631.27;124332;1102;104288;-78
2022/07/30 01:55:46;;;;;;;17.73;10.63;;;;;;;21.15;77.69;100633.05;124151;1102;104462;-78
2022/07/30 01:58:18;;;;;;;16.07;9.57;;;;;;;21.16;77.84;100636.60;124361;1102;104306;-79
2022/07/30 02:00:48;;;;;;;;;;;;;;;21.13;78.33;100632.19;124318;1102;102746;-78
2022/07/30 02:03:17;;;;;;;21.37;13.23;;;;;;;21.13;78.59;100640.19;125100;1102;104309;-79
2022/07/30 02:06:07;;;;;;;20.17;13.97;;;;;;;21.12;78.30;100632.20;124395;1102;102342;-78
2022/07/30 02:08:40;;;;;;;22.60;14.93;;;;;;;21.13;78.27;100636.62;124274;1101;104160;-78
2022/07/30 02:11:09;;;;;;;;;;;;;;;21.12;77.58;100633.08;124314;1102;104239;-78
2022/07/30 02:13:44;;;;;;;24.03;15.63;;;;;;;21.14;78.42;100630.39;124172;1105;104807;-77
2022/07/30 02:16:19;;;;;;;23.67;15.57;;;;;;;21.15;78.27;100630.39;124129;1104;104370;-78
2022/07/30 02:18:57;;;;;;;24.13;15.37;;;;;;;21.15;78.49;100629.52;124163;1105;104274;-78
2022/07/30 02:21:27;;;;;;;23.10;14.97;;;;;;;21.14;78.28;100631.27;124148;1105;104259;-79
2022/07/30 02:23:57;;;;;;;23.63;15.57;;;;;;;21.11;78.85;100627.74;124079;1105;104208;-78
2022/07/30 02:26:27;;;;;;;21.60;15.30;;;;;;;21.09;78.96;100630.42;124118;1105;104748;-78
2022/07/30 02:29:00;;;;;;;27.10;16.00;;;;;;;21.05;79.10;100626.02;124874;1105;104380;-78
2022/07/30 02:31:31;;;;;;;22.82;15.08;;;;;;;21.03;78.53;100626.91;124152;1104;104201;-78
2022/07/30 02:34:02;;;;;;;26.80;15.60;;;;;;;20.99;78.70;100618.05;124137;1105;104169;-78
2022/07/30 02:36:34;;;;;;;25.43;15.93;;;;;;;21.00;78.70;100625.13;124133;1105;102893;-78
2022/07/30 02:39:08;;;;;;;22.47;14.40;;;;;;;21.01;78.80;100621.58;124144;1106;104374;-78
2022/07/30 02:41:39;;;;;;;24.00;14.80;;;;;;;20.99;79.63;100613.59;124760;1105;102209;-78
2022/07/30 02:44:09;;;;;;;23.73;14.47;;;;;;;20.99;79.19;100612.72;124160;1105;104176;-79
2022/07/30 02:46:40;;;;;;;26.73;15.00;;;;;;;20.99;78.95;100608.25;124104;1102;104360;-78
2022/07/30 02:49:40;;;;;;;21.90;13.55;;;;;;;20.96;79.56;100610.94;124276;1102;103864;-78
2022/07/30 02:52:12;;;;;;;21.53;13.83;;;;;;;20.96;78.52;100615.39;124304;1099;101855;-78
2022/07/30 02:54:43;;;;;;;22.90;13.23;;;;;;;20.95;78.86;100613.61;124304;1099;102794;-78
2022/07/30 02:57:13;;;;;;;21.30;13.33;;;;;;;20.95;79.02;100616.28;124288;1102;104188;-78
2022/07/30 02:59:44;;;;;;;18.63;12.30;;;;;;;20.93;79.56;100613.63;124262;1102;104169;-77
2022/07/30 03:02:15;;;;;;;22.20;13.50;;;;;;;20.93;79.37;100610.08;124289;1102;104370;-77
2022/07/30 03:04:45;;;;;;;21.55;12.65;;;;;;;20.85;78.89;100603.88;124247;1099;104239;-77
2022/07/30 03:07:15;;;;;;;22.43;12.20;;;;;;;20.89;79.46;100625.19;124295;1099;102791;-77
2022/07/30 03:09:45;;;;;;;20.50;13.03;;;;;;;20.90;79.19;100624.30;124301;1099;104427;-77
2022/07/30 03:12:15;;;;;;;22.77;14.13;;;;;;;20.93;79.78;100624.29;124280;1099;104236;-77
2022/07/30 03:14:44;;;;;;;21.63;13.70;;;;;;;20.96;79.88;100624.27;124275;1099;104182;-78
2022/07/30 03:17:17;;;;;;;22.57;14.20;;;;;;;20.99;79.01;100628.72;124278;1099;102170;-77
2022/07/30 03:19:48;;;;;;;22.85;14.00;;;;;;;20.99;79.18;100626.05;124304;1099;104198;-78
2022/07/30 03:22:20;;;;;;;23.00;14.20;;;;;;;21.01;79.24;100625.12;124250;1101;104173;-77
2022/07/30 03:24:53;;;;;;;21.73;13.97;;;;;;;21.03;79.80;100630.45;124287;1102;102875;-77
2022/07/30 03:27:22;;;;;;;22.57;14.20;;;;;;;21.05;80.12;100628.69;124251;1102;104224;-77
2022/07/30 03:29:53;;;;;;;23.57;15.67;;;;;;;21.07;79.66;100631.34;124280;1099;102829;-78
2022/07/30 03:32:23;;;;;;;24.17;15.23;;;;;;;21.09;80.00;100625.09;124250;1099;101819;-79
2022/07/30 03:34:53;;;;;;;21.67;14.23;;;;;;;21.12;79.65;100625.06;124299;1102;104398;-77
2022/07/30 03:37:22;;;;;;;23.07;14.63;;;;;;;21.15;79.70;100619.72;124234;1101;104153;-77
2022/07/30 03:39:52;;;;;;;25.30;15.20;;;;;;;21.19;79.71;100624.15;124307;1099;102884;-77
2022/07/30 03:42:22;;;;;;;21.83;14.17;;;;;;;21.23;79.49;100621.46;124272;1099;104176;-77
2022/07/30 03:44:51;;;;;;;22.77;14.13;;;;;;;21.27;79.88;100625.86;124277;1102;102762;-78
2022/07/30 03:47:23;;;;;;;24.20;15.20;;;;;;;21.31;79.93;100619.63;124246;1099;104213;-78
2022/07/30 03:49:53;;;;;;;24.40;14.67;;;;;;;21.34;80.18;100616.94;124284;1102;102116;-77
2022/07/30 03:52:22;;;;;;;25.83;15.07;;;;;;;21.38;79.76;100624.03;124269;1102;102976;-78
2022/07/30 03:54:51;;;;;;;26.13;15.63;;;;;;;21.42;79.68;100623.09;124240;1099;104613;-77
2022/07/30 03:57:46;;;;;;;25.67;15.47;;;;;;;21.42;80.41;100625.77;124178;1102;104421;-77
2022/07/30 04:00:17;;;;;;;24.10;14.83;;;;;;;21.43;80.39;100630.22;124246;1102;102290;-78
2022/07/30 04:02:48;;;;;;;22.57;14.90;;;;;;;21.43;80.48;100624.00;124274;1102;104171;-77
2022/07/30 04:05:28;;;;;;;23.97;15.37;;;;;;;21.45;79.50;100623.08;124248;1102;104160;-77
2022/07/30 04:08:00;;;;;;;24.00;15.60;;;;;;;21.50;80.56;100620.41;124313;1099;104287;-77
2022/07/30 04:10:29;;;;;;;20.63;14.63;;;;;;;21.54;80.69;100620.37;124260;1099;104194;-77
2022/07/30 04:13:01;;;;;;;23.27;15.27;;;;;;;21.60;79.69;100621.21;124267;1099;104285;-77
2022/07/30 04:15:37;;;;;;;22.57;15.17;;;;;;;21.63;79.87;100621.19;124196;1099;103224;-77
2022/07/30 04:18:07;;;;;;;23.27;15.53;;;;;;;21.69;80.70;100622.05;124315;1102;102303;-77
2022/07/30 04:20:41;;;;;;;23.23;14.60;;;;;;;21.73;80.17;100617.56;124309;1102;104247;-78
2022/07/30 04:23:11;;;;;;;23.27;14.50;;;;;;;21.82;80.38;100625.49;124304;1102;102829;-78
2022/07/30 04:25:41;;;;;;;22.93;13.77;;;;;;;21.88;80.38;100622.77;124236;1102;104392;-78
2022/07/30 04:28:11;;;;;;;20.90;13.23;;;;;;;21.94;79.86;100623.60;124212;1102;104249;-78
2022/07/30 04:30:41;;;;;;;18.80;10.20;;;;;;;21.98;80.20;100630.70;125070;1102;104345;-78
2022/07/30 04:33:10;;;;;;;16.75;9.40;;;;;;;21.97;79.57;100632.50;125085;1102;104183;-78
2022/07/30 04:36:13;;;;;;;;;;;;;;;21.96;79.36;100640.53;124352;1102;101989;-78
2022/07/30 04:38:42;;;;;;;16.53;9.90;;;;;;;21.99;79.35;100636.03;124331;1102;103150;-78
2022/07/30 04:41:11;;;;;;;18.27;10.83;;;;;;;22.02;79.34;100629.78;125078;1102;104037;-78
2022/07/30 04:43:59;;;;;;;19.75;10.50;;;;;;;22.04;79.18;100634.19;125123;1102;104197;-79
2022/07/30 04:46:28;;;;;;;18.80;10.80;;;;;;;22.11;79.42;100639.48;125098;1102;102846;-79
2022/07/30 04:48:57;;;;;;;18.17;10.83;;;;;;;22.15;79.49;100643.91;125069;1102;104258;-78
2022/07/30 04:51:36;;;;;;;17.85;10.05;;;;;;;22.18;79.23;100642.08;125088;1099;104190;-78
2022/07/30 04:54:08;;;;;;;17.87;9.20;;;;;;;22.17;79.13;100642.97;125067;1102;104332;-79
2022/07/30 04:56:38;;;;;;;18.80;9.80;;;;;;;22.16;78.95;100641.22;125036;1102;104366;-78
2022/07/30 04:59:08;;;;;;;16.23;9.60;;;;;;;22.15;77.88;100647.45;124348;1099;102165;-78
2022/07/30 05:01:39;;;;;;;17.07;9.63;;;;;;;22.14;78.03;100644.80;125108;1099;104208;-78
2022/07/30 05:04:10;;;;;;;15.23;9.30;;;;;;;22.17;78.31;100644.77;125039;1102;102804;-78
2022/07/30 05:06:40;;;;;;;18.03;11.10;;;;;;;22.18;78.11;100646.55;125018;1100;104345;-78
2022/07/30 05:09:10;;;;;;;18.40;10.75;;;;;;;22.25;77.85;100654.49;125039;1099;102762;-78
2022/07/30 05:11:39;;;;;;;21.97;11.77;;;;;;;22.33;77.77;100657.13;125100;1099;104181;-78
2022/07/30 05:14:11;;;;;;;17.33;11.23;;;;;;;22.42;78.44;100656.12;125058;1099;104239;-78
2022/07/30 05:20:22;;;;;;;22.90;11.30;;;;;;;22.62;77.56;100666.59;124683;1102;109565;-78
2022/07/30 05:23:14;;;;;;;20.15;10.50;;;;;;;22.67;77.92;100655.84;125068;1099;104169;-78
2022/07/30 05:25:44;;;;;;;17.13;11.23;;;;;;;22.76;77.89;100659.29;124969;1099;102356;-78
2022/07/30 05:28:17;;;;;;;20.05;11.10;;;;;;;22.86;77.54;100654.73;125023;1102;102103;-78
2022/07/30 05:30:46;;;;;;;18.67;10.80;;;;;;;22.97;77.71;100665.30;125017;1102;104267;-78
2022/07/30 05:33:18;;;;;;;17.53;10.30;;;;;;;23.06;77.31;100658.92;124908;1099;108235;-78
2022/07/30 05:35:48;;;;;;;19.50;10.60;;;;;;;23.14;77.20;100659.77;124237;1102;104220;-78
2022/07/30 05:38:17;;;;;;;15.33;9.33;;;;;;;23.26;77.05;100667.59;124237;1102;104242;-79
2022/07/30 05:41:00;;;;;;;18.53;10.20;;;;;;;23.31;76.41;100664.85;124293;1102;102874;-78
2022/07/30 05:43:47;;;;;;;17.60;9.30;;;;;;;23.39;76.63;100670.09;124308;1099;120105;-77
2022/07/30 05:46:16;;;;;;;17.47;9.80;;;;;;;23.50;76.51;100671.72;124224;1102;102947;-77
2022/07/30 05:48:44;;;;;;;15.53;9.77;;;;;;;23.61;76.10;100670.69;124247;1102;104061;-77
2022/07/30 05:51:13;;;;;;;18.83;10.53;;;;;;;23.66;76.01;100674.17;124332;1099;104198;-77
2022/07/30 05:53:42;;;;;;;18.60;10.33;;;;;;;23.71;76.07;100672.30;124202;1102;104313;-78
2022/07/30 05:56:11;;;;;;;17.67;10.17;;;;;;;23.72;75.71;100673.16;124268;1099;104178;-78
2022/07/30 05:59:05;;;;;;;17.90;10.18;;;;;;;23.67;75.45;100668.79;124219;1102;104430;-77
2022/07/30 06:01:57;;;;;;;19.53;10.97;;;;;;;23.63;75.11;100675.09;124360;1099;104133;-78
2022/07/30 06:04:30;;;;;;;17.93;10.57;;;;;;;23.62;75.53;100677.79;124955;1102;110837;-78
2022/07/30 06:07:04;;;;;;;21.23;10.77;;;;;;;23.61;75.10;100684.08;124360;1099;104306;-78
2022/07/30 06:09:33;;;;;;;19.77;11.13;;;;;;;23.56;75.14;100681.47;125002;1102;104355;-77
2022/07/30 06:12:03;;;;;;;17.87;10.17;;;;;;;23.51;74.99;100675.27;124230;1102;104964;-78
2022/07/30 06:14:31;;;;;;;18.93;11.20;;;;;;;23.48;74.75;100680.67;124256;1102;102047;-77
2022/07/30 06:17:00;;;;;;;20.07;11.40;;;;;;;23.41;74.69;100679.89;124208;1102;102469;-78
2022/07/30 06:19:35;;;;;;;18.97;11.10;;;;;;;23.39;74.60;100678.13;124986;1102;102168;-81
2022/07/30 06:22:04;;;;;;;22.23;11.87;;;;;;;23.35;74.57;100682.66;124294;1102;102868;-78
2022/07/30 06:24:33;;;;;;;19.17;10.67;;;;;;;23.35;74.36;100687.14;124966;1102;104229;-78
2022/07/30 06:27:08;;;;;;;17.17;9.97;;;;;;;23.36;74.71;100673.73;124270;1102;104159;-79
2022/07/30 06:29:37;;;;;;;18.30;10.60;;;;;;;23.40;74.59;100674.56;124256;1100;104159;-78
2022/07/30 06:32:07;;;;;;;17.70;9.87;;;;;;;23.46;74.39;100672.66;124279;1102;104076;-78
2022/07/30 06:34:36;;;;;;;17.57;11.40;;;;;;;23.53;74.19;100676.16;125030;1099;104191;-78
2022/07/30 06:37:07;;;;;;;16.17;10.00;;;;;;;23.57;73.64;100674.31;124219;1102;104670;-77
2022/07/30 06:39:37;;;;;;;16.80;10.53;;;;;;;23.61;73.60;100676.91;124264;1102;102902;-78
2022/07/30 06:42:26;;;;;;;16.43;10.50;;;;;;;23.68;73.79;100681.28;124275;1101;104342;-77
2022/07/30 06:45:24;;;;;;;17.00;10.17;;;;;;;23.75;73.38;100674.02;124167;1105;102207;-78
2022/07/30 06:48:11;;;;;;;17.83;9.77;;;;;;;23.78;73.35;100670.39;124314;1099;102028;-77
2022/07/30 06:50:40;;;;;;;14.97;9.23;;;;;;;23.83;73.03;100668.55;124279;1099;104163;-77
2022/07/30 06:53:09;;;;;;;17.30;10.63;;;;;;;23.86;72.85;100666.72;124279;1099;104297;-77
2022/07/30 06:56:01;;;;;;;17.20;9.70;;;;;;;23.91;72.47;100676.48;124265;1099;111815;-77
2022/07/30 06:58:35;;;;;;;17.03;8.90;;;;;;;23.99;72.44;100674.56;124307;1102;103212;-78
2022/07/30 07:01:37;;;;;;;13.37;7.83;;;;;;;24.04;71.87;100675.35;124265;1099;103328;-77
2022/07/30 07:04:06;;;;;;;12.63;7.10;;;;;;;24.08;71.62;100673.52;124235;1102;104467;-78
2022/07/30 07:06:36;;;;;;;13.10;7.07;;;;;;;24.14;71.33;100674.30;124263;1102;104211;-77
2022/07/30 07:09:05;;;;;;;13.37;7.17;;;;;;;24.16;71.46;100667.09;124266;1102;104274;-77
2022/07/30 07:11:40;;;;;;;11.23;6.80;;;;;;;24.28;70.81;100662.42;124304;1102;102826;-77
2022/07/30 07:14:11;;;;;;;14.27;7.10;;;;;;;24.34;71.06;100660.53;124261;1099;104554;-78
2022/07/30 07:16:40;;;;;;;13.57;7.00;;;;;;;24.40;70.29;100662.19;124216;1102;107090;-77
2022/07/30 07:19:41;;;;;;;14.50;7.47;;;;;;;24.46;70.23;100658.52;124132;1102;104239;-77
2022/07/30 07:22:10;;;;;;;14.20;6.70;;;;;;;24.45;70.12;100657.64;124236;1102;104252;-77
2022/07/30 07:24:39;;;;;;;11.70;6.57;;;;;;;24.47;70.08;100655.80;124326;1102;105374;-78
2022/07/30 07:27:11;;;;;;;14.73;6.50;;;;;;;24.48;69.86;100651.31;124276;1099;104824;-77
2022/07/30 07:29:39;;;;;;;11.30;6.70;;;;;;;24.45;68.89;100654.05;124263;1099;102905;-77
2022/07/30 07:32:09;;;;;;;10.27;5.83;;;;;;;24.37;68.48;100655.11;124307;1102;104174;-77
2022/07/30 07:34:41;;;;;;;13.53;5.97;;;;;;;24.31;68.34;100657.00;124276;1100;104291;-78
2022/07/30 07:37:10;;;;;;;9.30;5.80;;;;;;;24.24;68.04;100653.55;124284;1102;104086;-77
2022/07/30 07:39:39;;;;;;;10.53;5.63;;;;;;;24.17;68.09;100659.96;124242;1102;102813;-77
2022/07/30 07:42:08;;;;;;;13.63;6.73;;;;;;;24.13;68.64;100660.92;124241;1102;103257;-78
2022/07/30 07:44:38;;;;;;;11.93;6.50;;;;;;;24.03;67.92;100661.08;125024;1102;104226;-80
2022/07/30 07:47:07;;;;;;;14.90;5.93;;;;;;;23.90;68.01;100659.50;125004;1100;111418;-79
2022/07/30 07:49:39;;;;;;;9.33;5.80;;;;;;;23.79;67.91;100659.65;125014;1102;104294;-80
2022/07/30 07:52:08;;;;;;;11.60;6.10;;;;;;;23.68;68.23;100656.27;125037;1102;102371;-79
2022/07/30 07:54:37;;;;;;;10.60;6.47;;;;;;;23.62;67.85;100659.04;125053;1102;104316;-78
2022/07/30 07:57:07;;;;;;;11.87;6.03;;;;;;;23.58;68.27;100660.89;125003;1102;104165;-78
2022/07/30 07:59:42;;;;;;;12.83;6.27;;;;;;;23.58;68.29;100652.86;125016;1102;104217;-78
2022/07/30 08:02:21;;;;;;;11.70;6.63;;;;;;;23.63;68.56;100655.47;125065;1102;104237;-78
2022/07/30 08:04:58;;;;;;;11.53;6.57;;;;;;;23.68;68.28;100656.27;125051;1102;104371;-80
2022/07/30 08:07:45;;;;;;;13.33;7.00;;;;;;;23.80;68.94;100664.11;125043;1100;107989;-79
2022/07/30 08:10:33;;;;;;;14.33;7.60;;;;;;;23.94;68.82;100663.91;125127;1102;102276;-79
2022/07/30 08:13:27;;;;;;;16.77;7.67;;;;;;;24.11;69.18;100657.39;125050;1100;102177;-79
2022/07/30 08:16:31;;;;;;;15.27;7.43;;;;;;;24.27;68.71;100656.18;124820;1102;102878;-78
2022/07/30 08:19:03;;;;;;;13.90;7.33;;;;;;;24.42;68.97;100660.39;125029;1102;103028;-81
2022/07/30 08:21:44;;;;;;;18.37;9.17;;;;;;;24.52;68.65;100653.91;124374;1102;104159;-81
2022/07/30 08:24:18;;;;;;;15.77;9.30;;;;;;;24.66;68.33;100648.31;125062;1102;104175;-79
2022/07/30 08:26:46;;;;;;;17.20;9.80;;;;;;;24.80;68.23;100642.66;125016;1102;105467;-79
2022/07/30 08:29:15;;;;;;;17.27;10.30;;;;;;;24.91;68.24;100631.70;125061;1099;104346;-78
2022/07/30 08:31:44;;;;;;;19.77;9.43;;;;;;;25.10;67.43;100630.39;125060;1102;104440;-80
2022/07/30 08:34:13;;;;;;;16.40;9.00;;;;;;;25.26;67.46;100627.36;124859;1102;104076;-79
2022/07/30 08:36:43;;;;;;;18.67;9.67;;;;;;;25.34;66.89;100627.19;124983;1102;104191;-80
2022/07/30 08:39:12;;;;;;;19.03;10.13;;;;;;;25.45;67.07;100620.66;124881;1102;104169;-78
2022/07/30 08:41:41;;;;;;;18.73;9.93;;;;;;;25.53;66.48;100627.66;124939;1102;104169;-79
2022/07/30 08:44:11;;;;;;;15.80;8.27;;;;;;;25.66;66.95;100631.78;124179;1102;104258;-79
2022/07/30 08:46:42;;;;;;;15.27;6.87;;;;;;;25.75;65.92;100631.56;124174;1102;104463;-77
2022/07/30 08:49:32;;;;;;;10.70;6.37;;;;;;;25.83;65.78;100629.55;124857;1102;102343;-79
2022/07/30 08:52:01;;;;;;;13.97;6.60;;;;;;;25.92;65.59;100630.26;124900;1102;102117;-78
2022/07/30 08:54:47;;;;;;;8.60;5.77;;;;;;;25.93;64.96;100632.00;124932;1102;104307;-79
2022/07/30 08:57:16;;;;;;;13.67;6.20;;;;;;;25.96;64.10;100632.83;125007;1102;104342;-78
2022/07/30 08:59:47;;;;;;;11.05;5.45;;;;;;;26.04;63.91;100629.98;124880;1102;104342;-78
2022/07/30 09:02:16;;;;;;;12.07;5.63;;;;;;;26.16;63.68;100623.37;124272;1102;103072;-78
2022/07/30 09:04:58;;;;;;;9.77;5.30;;;;;;;26.24;63.19;100621.38;124194;1102;104239;-77
2022/07/30 09:07:27;;;;;;;9.00;4.90;;;;;;;26.35;62.69;100627.33;124262;1099;102299;-80
2022/07/30 09:09:57;;;;;;;10.53;5.27;;;;;;;26.47;62.82;100627.91;124252;1102;104246;-78
2022/07/30 09:12:34;;;;;;;11.10;6.20;;;;;;;26.57;62.59;100631.21;124307;1102;104066;-78
2022/07/30 09:15:06;;;;;;;9.10;5.53;;;;;;;26.54;60.66;100625.00;124314;1102;104220;-79
2022/07/30 09:17:54;;;;;;;10.07;5.53;;;;;;;26.51;60.56;100621.53;124275;1102;104159;-78
2022/07/30 09:20:25;;;;;;;10.93;5.87;;;;;;;26.62;60.27;100618.53;124272;1102;104235;-77
2022/07/30 09:22:56;;;;;;;9.97;5.50;;;;;;;26.69;59.66;100617.44;124269;1102;104223;-77
2022/07/30 09:25:45;;;;;;;9.93;4.80;;;;;;;26.76;59.05;100615.47;124271;1102;104999;-78
2022/07/30 09:28:33;;;;;;;8.67;4.37;;;;;;;26.82;58.25;100617.98;124264;1102;104162;-78
2022/07/30 09:31:22;;;;;;;7.93;4.53;;;;;;;26.81;57.56;100611.69;124272;1101;104163;-78
2022/07/30 09:34:24;;;;;;;11.40;4.30;;;;;;;26.88;57.41;100610.59;124285;1102;104163;-78
2022/07/30 09:36:58;;;;;;;9.37;4.23;;;;;;;26.92;57.23;100610.50;125042;1102;104166;-79
2022/07/30 09:39:53;;;;;;;7.60;4.47;;;;;;;26.90;56.64;100608.72;124938;1102;109412;-78
2022/07/30 09:42:30;;;;;;;8.20;4.33;;;;;;;26.89;55.90;100608.77;125045;1102;102890;-78
2022/07/30 09:45:08;;;;;;;8.13;4.23;;;;;;;26.82;54.85;100597.31;125032;1102;102219;-78
2022/07/30 09:47:39;;;;;;;8.67;4.93;;;;;;;26.84;55.26;100594.58;124321;1102;102086;-77
2022/07/30 09:50:10;;;;;;;8.57;4.70;;;;;;;26.89;55.00;100593.48;124274;1099;118837;-77
2022/07/30 09:52:41;;;;;;;11.90;4.80;;;;;;;27.01;55.12;100592.23;124436;1102;101870;-77
2022/07/30 09:55:10;;;;;;;8.70;4.40;;;;;;;27.14;54.82;100591.86;124269;1102;104220;-77
2022/07/30 09:57:55;;;;;;;14.00;4.73;;;;;;;27.25;54.30;100587.91;124256;1102;104632;-77
2022/07/30 10:00:30;;;;;;;7.97;3.67;;;;;;;27.30;54.57;100592.24;124275;1102;104311;-78
2022/07/30 10:03:21;;;;;;;7.50;3.97;;;;;;;27.46;53.03;100588.16;124193;1099;104428;-78
2022/07/30 10:06:11;;;;;;;;;;;;;;;27.42;50.17;100581.09;124188;1099;104117;-79
2022/07/30 10:08:46;;;;;;;6.37;3.70;;;;;;;27.48;51.75;100580.89;124875;1099;103340;-77
2022/07/30 10:11:17;;;;;;;7.57;3.53;;;;;;;27.54;51.62;100587.91;124274;1102;104338;-78
2022/07/30 10:13:48;;;;;;;8.47;3.57;;;;;;;27.53;50.54;100584.31;124280;1102;104312;-79
2022/07/30 10:16:17;;;;;;;8.30;3.53;;;;;;;27.52;50.69;100582.57;124248;1102;104805;-77
2022/07/30 10:18:46;;;;;;;8.23;3.80;;;;;;;27.61;51.42;100584.05;124220;1102;104102;-77
2022/07/30 10:21:49;;;;;;;8.00;3.90;;;;;;;27.52;50.56;100585.27;124183;1102;104181;-77
2022/07/30 10:24:21;;;;;;;9.08;4.15;;;;;;;27.51;50.39;100582.62;125019;1102;104108;-77
2022/07/30 10:26:50;;;;;;;8.50;4.00;;;;;;;27.47;50.54;100576.43;124330;1102;104332;-77
2022/07/30 10:29:39;;;;;;;6.03;3.90;;;;;;;27.38;50.23;100583.02;124304;1102;103025;-77
2022/07/30 10:32:08;;;;;;;6.50;4.00;;;;;;;27.35;49.75;100574.17;124271;1102;102785;-77
2022/07/30 10:34:39;;;;;;;6.70;3.75;;;;;;;27.35;50.05;100575.04;124234;1102;104159;-78
2022/07/30 10:37:09;;;;;;;7.10;4.05;;;;;;;27.42;50.25;100575.70;124314;1103;103808;-78
2022/07/30 10:39:50;;;;;;;7.33;4.07;;;;;;;27.55;50.34;100571.69;124277;1102;104265;-77
2022/07/30 10:42:34;;;;;;;8.83;4.30;;;;;;;27.60;50.10;100568.84;124392;1099;104609;-77
2022/07/30 10:45:23;;;;;;;8.00;4.17;;;;;;;27.61;49.57;100567.88;124259;1102;104108;-77
2022/07/30 10:47:54;;;;;;;8.60;4.13;;;;;;;27.68;50.25;100555.09;124352;1099;104168;-77
2022/07/30 10:50:25;;;;;;;10.10;4.97;;;;;;;27.83;50.12;100561.75;124183;1102;104211;-77
2022/07/30 10:52:56;;;;;;;9.63;5.10;;;;;;;27.87;49.47;100558.02;124289;1102;102868;-77
2022/07/30 10:55:27;;;;;;;7.20;4.50;;;;;;;27.91;50.10;100555.17;124301;1102;104172;-77
2022/07/30 10:58:04;;;;;;;6.07;4.10;;;;;;;28.04;50.05;100546.67;124229;1102;103306;-78
2022/07/30 11:00:36;;;;;;;8.43;4.53;;;;;;;28.04;49.69;100547.55;124658;1099;104316;-78
2022/07/30 11:03:22;;;;;;;13.45;4.50;;;;;;;28.07;49.59;100550.13;124241;1099;104224;-77
2022/07/30 11:05:52;;;;;;;7.70;4.40;;;;;;;28.13;49.38;100540.95;124287;1099;102782;-78
2022/07/30 11:08:32;;;;;;;10.30;4.43;;;;;;;28.14;48.92;100537.30;125025;1099;103679;-79
2022/07/30 11:11:02;;;;;;;9.57;4.40;;;;;;;28.22;48.45;100540.61;124264;1102;104063;-78
2022/07/30 11:13:50;;;;;;;9.37;4.77;;;;;;;28.27;48.72;100533.22;124285;1099;104159;-78
2022/07/30 11:16:59;;;;;;;6.53;4.47;;;;;;;28.32;49.25;100533.05;124302;1099;104166;-77
2022/07/30 11:19:27;;;;;;;9.00;4.53;;;;;;;28.37;49.06;100532.87;124356;1099;104169;-77
2022/07/30 11:22:27;;;;;;;12.10;5.10;;;;;;;28.49;48.54;100527.01;124311;1102;104242;-77
2022/07/30 11:24:56;;;;;;;8.97;4.33;;;;;;;28.65;49.15;100519.22;124776;1102;104402;-78
2022/07/30 11:27:39;;;;;;;8.93;4.73;;;;;;;28.75;48.38;100517.03;124209;1102;104433;-77
2022/07/30 11:30:33;;;;;;;8.63;4.83;;;;;;;28.72;47.94;100515.35;124824;1103;104309;-79
2022/07/30 11:33:18;;;;;;;;;;;;;;;28.64;47.46;100521.05;124895;1102;102980;-77